• Join FlightAware (Why Join?)
  • Login
  • US Flag 
09:29PM EST


 

Airport Tracker/Info


-or-


 

Live Flight TrackerFlight Track Log ✈ EJA831 ✈ 26-Apr-2013 ✈ KRST - KLGA

Flight Track Log - Related Links

Times and Time Zones

All times are in EDT time to prevent confusion due to time zone crossing. See the EJA831 flight status page for this flight to view local times or setup timezone preferences in your user account.

Time Position Orientation Groundspeed Altitude Reporting Facility
EDT Latitude Longitude Course Direction KTS MPH feet Rate Location/Type
11:15AM 43.8578 -92.5272 90° East 176 203 4,900  Level Minneapolis Center
11:16AM 43.8008 -92.4772 148° Southeast 263 303 8,600 3,240 Climbing Minneapolis Center
11:17AM 43.8133 -92.3281 83° East 325 374 12,400 3,180 Climbing Minneapolis Center
11:18AM 43.8114 -92.1933 91° East 363 418 15,300 2,820 Climbing Minneapolis Center
11:19AM 43.7928 -92.0400 99° East 375 432 18,300 2,580 Climbing Minneapolis Center
11:20AM 43.9000 -92.3429 90° East  Level FlightAware Approximate
11:20AM 43.7764 -91.9069 100° East 389 448 20,600  Level Minneapolis Center
11:21AM 43.7569 -91.7575 100° East 395 455 23,000 2,460 Climbing Minneapolis Center
11:22AM 43.7350 -91.5733 99° East 404 465 25,700 2,280 Climbing Minneapolis Center
11:23AM 43.7150 -91.4186 100° East 406 467 27,800 1,560 Climbing Minneapolis Center
11:24AM 43.6942 -91.2611 100° East 412 474 29,000 840 Climbing Minneapolis Center
11:25AM 43.6719 -91.0881 100° East 443 510 29,600 720 Climbing Minneapolis Center
11:26AM 43.6483 -90.9114 100° East 465 535 30,600 960 Climbing Minneapolis Center
11:27AM 43.6303 -90.7697 100° East 469 540 31,600 1,320 Climbing Minneapolis Center
11:28AM 43.5969 -90.5222 100° East 471 542 33,400 1,500 Climbing Minneapolis Center
11:29AM 43.5714 -90.3467 101° East 470 541 34,700 1,260 Climbing Minneapolis Center
11:30AM 43.5458 -90.1589 101° East 464 534 36,100 1,260 Climbing Minneapolis Center
11:31AM 43.5211 -89.9878 101° East 456 525 37,400 1,200 Climbing Minneapolis Center
11:32AM 43.4967 -89.8169 101° East 455 524 38,700 1,080 Climbing Minneapolis Center
11:33AM 43.4797 -89.7072 102° East 448 516 39,400 900 Climbing Chicago Center
11:34AM 43.4558 -89.5436 101° East 438 504 40,300 780 Climbing Chicago Center
11:35AM 43.4283 -89.3536 101° East 433 498 41,000 300 Climbing Chicago Center
11:36AM 43.4039 -89.1869 101° East 442 509 41,000  Level Chicago Center
11:37AM 43.3775 -89.0150 102° East 455 524 41,000  Level Chicago Center
11:38AM 43.3508 -88.8400 102° East 465 535 41,000  Level Chicago Center
11:39AM 43.3236 -88.6631 102° East 475 547 41,000  Level Chicago Center
11:40AM 43.2914 -88.4575 102° East 481 554 41,000  Level Chicago Center
11:41AM 43.2633 -88.2806 102° East 482 555 41,000  Level Chicago Center
11:42AM 43.2353 -88.1017 102° East 483 556 41,000  Level Chicago Center
11:43AM 43.2067 -87.9244 102° East 479 551 41,000  Level Chicago Center
11:44AM 43.1728 -87.7164 103° East 479 551 41,000  Level Chicago Center
11:45AM 43.1442 -87.5375 102° East 480 552 41,000  Level Chicago Center
11:47AM 43.1136 -87.3589 103° East 481 554 41,000  Level Chicago Center
11:48AM 43.0831 -87.1708 102° East 481 554 41,000  Level Chicago Center
11:49AM 43.0533 -86.9925 103° East 483 556 41,000  Level Chicago Center
11:50AM 43.0228 -86.8142 103° East 484 557 41,000  Level Chicago Center
11:51AM 42.9914 -86.6369 104° East 483 556 41,000  Level Chicago Center
11:52AM 42.9600 -86.4614 104° East 481 554 41,000  Level Chicago Center
11:53AM 42.9236 -86.2514 103° East 480 552 41,000  Level Chicago Center
11:54AM 42.8922 -86.0797 104° East 477 549 41,000  Level Chicago Center
11:55AM 42.8622 -85.9089 103° East 477 549 41,000  Level Chicago Center
11:56AM 42.8306 -85.7364 104° East 476 548 41,000  Level Chicago Center
11:57AM 42.7989 -85.5622 104° East 478 550 41,000  Level Chicago Center
11:58AM 42.7400 -85.3625 112° Southeast 476 548 41,000  Level Chicago Center
11:59AM 42.6839 -85.2014 115° Southeast 476 548 41,000  Level Chicago Center
12:00PM 42.6267 -85.0397 116° Southeast 475 547 41,000  Level Chicago Center
12:01PM 42.5694 -84.8775 116° Southeast 478 550 41,000  Level Chicago Center
12:02PM 42.5111 -84.7175 116° Southeast 475 547 41,000  Level Chicago Center
12:03PM 42.4536 -84.5683 118° Southeast 476 548 41,000  Level Cleveland Center
12:04PM 42.3967 -84.4072 116° Southeast 476 548 41,000  Level Cleveland Center
12:05PM 42.3372 -84.2464 117° Southeast 476 548 41,000  Level Cleveland Center
12:06PM 42.2778 -84.0828 116° Southeast 483 556 41,000 240 Level Cleveland Center
12:07PM 42.2197 -83.9256 116° Southeast 478 550 41,500  Climbing Cleveland Center
12:08PM 42.1578 -83.7625 117° Southeast 478 550 41,000 -300 Descending Cleveland Center
12:09PM 42.0917 -83.5856 117° Southeast 485 558 41,000  Level Cleveland Center
12:10PM 42.0369 -83.4433 117° Southeast 480 552 41,000  Level Cleveland Center
12:11PM 41.9592 -83.2947 125° Southeast 480 552 41,000  Level Cleveland Center
12:12PM 41.8753 -83.1347 125° Southeast 486 559 41,000  Level Cleveland Center
12:13PM 41.7992 -82.9897 125° Southeast 481 554 41,000  Level Cleveland Center
12:14PM 41.7228 -82.8450 125° Southeast 481 554 41,000  Level Cleveland Center
12:16PM 41.6625 -82.5011 103° East 463 533 41,000  Level Cleveland Center
12:17PM 41.6464 -82.3256 97° East 469 540 41,000  Level Cleveland Center
12:18PM 41.6242 -82.1497 100° East 474 545 41,000  Level Cleveland Center
12:19PM 41.5508 -82.0036 124° Southeast 464 534 41,000  Level Cleveland Center
12:20PM 41.4692 -81.8661 128° Southeast 467 537 41,000  Level Cleveland Center
12:21PM 41.3933 -81.7400 129° Southeast 473 544 41,000  Level Cleveland Center
12:22PM 41.3156 -81.5978 126° Southeast 478 550 41,000  Level Cleveland Center
12:23PM 41.2311 -81.4583 129° Southeast 478 550 41,000  Level Cleveland Center
12:24PM 41.1383 -81.3056 129° Southeast 483 556 41,000  Level Cleveland Center
12:25PM 41.0706 -81.1561 121° Southeast 477 549 41,000  Level Cleveland Center
12:26PM 41.0608 -81.0017 95° East 455 524 41,000  Level Cleveland Center
12:27PM 41.1050 -80.8422 70° East 434 499 41,000  Level Cleveland Center
12:28PM 41.1742 -80.6853 60° Northeast 423 487 41,000  Level Cleveland Center
12:29PM 41.2367 -80.5389 60° Northeast 439 505 41,000  Level Cleveland Center
12:30PM 41.2989 -80.3925 60° Northeast 456 525 41,000  Level Cleveland Center
12:31PM 41.3592 -80.2567 59° Northeast 456 525 41,000  Level Cleveland Center
12:32PM 41.4067 -80.0958 68° East 461 531 41,000  Level Cleveland Center
12:33PM 41.4014 -79.9106 92° East 455 524 41,000  Level Cleveland Center
12:34PM 41.3856 -79.7308 97° East 460 529 41,000  Level Cleveland Center
12:35PM 41.3675 -79.5650 98° East 483 556 41,000  Level Cleveland Center
12:36PM 41.3492 -79.3883 98° East 489 563 41,000  Level Cleveland Center
12:37PM 41.3306 -79.1978 97° East 484 557 41,000  Level Cleveland Center
12:38PM 41.3094 -79.0186 99° East 484 557 41,000  Level Cleveland Center
12:39PM 41.2944 -78.8419 96° East 484 557 41,000 -240 Level Cleveland Center
12:40PM 41.2747 -78.6631 98° East 484 557 40,600 -1,740 Descending Cleveland Center
12:42PM 41.2364 -78.3397 99° East 487 560 35,900 -2,460 Descending New York Center
12:43PM 41.2161 -78.1661 99° East 487 560 33,400 -1,500 Descending New York Center
12:44PM 41.1956 -77.9903 99° East 482 555 33,000 -240 Descending New York Center
12:45PM 41.1750 -77.8142 99° East 482 555 33,000 -300 Level New York Center
12:46PM 41.1519 -77.6383 100° East 482 555 32,400 -1,020 Descending New York Center
12:47PM 41.1306 -77.4653 99° East 482 555 31,000 -720 Descending New York Center
12:48PM 41.1014 -77.2750 101° East 482 555 31,000  Level New York Center
12:49PM 41.0803 -77.0914 99° East 482 555 31,000 -780 Level New York Center
12:50PM 41.0558 -76.9211 101° East 482 555 29,500 -2,100 Descending New York Center
12:51PM 41.0311 -76.7539 101° East 472 543 26,800 -2,700 Descending New York Center
12:52PM 41.0033 -76.6000 103° East 472 543 24,100 -2,640 Descending New York Center
12:53PM 40.9692 -76.4461 106° East 457 526 21,500 -2,580 Descending New York Center
12:54PM 40.9328 -76.2864 107° East 426 490 18,900 -2,220 Descending New York Center
12:55PM 40.8958 -76.1433 109° East 413 475 17,200 -1,560 Descending New York Center
12:56PM 40.8658 -76.0203 108° East 394 453 15,800 -1,440 Descending New York Center
12:57PM 40.8306 -75.8722 107° East 389 448 14,300 -1,380 Descending New York Center
12:58PM 40.7967 -75.7381 108° East 383 441 13,100 -720 Descending New York Center
12:59PM 40.7700 -75.6264 107° East 370 426 12,900 -120 Descending New York Center
01:00PM 40.7378 -75.4981 108° East 370 426 12,900  Level New York Center
01:01PM 40.7117 -75.3706 105° East 370 426 12,900  Level New York Center
01:02PM 40.6853 -75.2400 105° East 370 426 12,900 -480 Level New York Center
01:03PM 40.6461 -75.1225 114° Southeast 365 420 12,000 -1,440 Descending New York Center
01:04PM 40.5769 -75.0172 131° Southeast 350 403 10,100 -1,080 Descending New York Center
01:05PM 40.5411 -74.9139 115° Southeast 323 372 9,900 -60 Descending New York Center
01:06PM 40.5167 -74.8333 112° Southeast 286 329 10,000  Climbing New York TRACON
01:07PM 40.4833 -74.7500 118° Southeast 285 328 10,000  Level New York TRACON
01:08PM 40.4167 -74.7333 169° South 249 287 10,000  Level New York TRACON
01:09PM 40.3667 -74.6500 128° Southeast 264 304 10,000 -480 Level New York TRACON
01:10PM 40.3500 -74.5833 108° East 231 266 9,100 -1,020 Descending New York TRACON
01:11PM 40.3167 -74.5167 123° Southeast 220 253 8,100 -540 Descending New York TRACON
01:12PM 40.3000 -74.4333 105° East 217 250 8,000 -120 Descending New York TRACON
01:13PM 40.3333 -74.3667 57° Northeast 217 250 7,900 -540 Descending New York TRACON
01:14PM 40.3833 -74.3167 37° Northeast 223 257 7,000 -480 Descending New York TRACON
01:15PM 40.4333 -74.2667 37° Northeast 222 255 7,000  Level New York TRACON
01:16PM 40.4667 -74.2167 49° Northeast 224 258 7,000 -480 Level New York TRACON
01:17PM 40.5167 -74.1500 45° Northeast 236 272 6,100 -1,200 Descending New York TRACON
01:18PM 40.5667 -74.1000 37° Northeast 225 259 4,800 -1,380 Descending New York TRACON
01:19PM 40.6167 -74.0500 37° Northeast 192 221 3,400 -1,140 Descending New York TRACON
01:20PM 40.6500 -74.0000 49° Northeast 189 217 2,500 -480 Descending New York TRACON
01:21PM 40.6833 -73.9667 37° Northeast 197 227 2,500 -60 Level New York TRACON
01:22PM 40.7167 -73.9000 57° Northeast 188 216 2,400 -600 Descending New York TRACON
01:23PM 40.7333 -73.8500 66° East 162 186 1,400 -900 Descending New York TRACON
01:24PM 40.7667 -73.8333 21° North 118 136 600 -840 Descending New York TRACON
01:26PM 40.7667 -73.8667 30° Northeast  Level FlightAware Approximate
01:33PM 40.7772 -73.8726 30° Northeast  Level Estimated